createdAt,value
2022-07-31T00:12:39.621Z,15411.16699
2022-07-31T00:27:41.876Z,14918.75391
2022-07-31T00:42:44.197Z,12699.9873
2022-07-31T00:57:46.420Z,10818.54395
2022-07-31T01:12:52.347Z,6242.3999
2022-07-31T01:27:56.493Z,6903.47363
2022-07-31T01:42:58.719Z,5694.73584
2022-07-31T01:58:00.996Z,1090.48132
2022-07-31T02:13:03.233Z,1015.84393
2022-07-31T02:28:05.553Z,785.14655
2022-07-31T02:43:07.749Z,505.98334
2022-07-31T02:58:09.943Z,319.87451
2022-07-31T03:13:12.251Z,180.29291
2022-07-31T03:28:14.439Z,68.82149
2022-07-31T03:43:16.653Z,20.35565
2022-07-31T03:58:18.874Z,2.90795
2022-07-31T04:13:21.216Z,0
2022-07-31T04:28:23.449Z,0
2022-07-31T04:43:25.683Z,0
2022-07-31T04:58:27.906Z,0
2022-07-31T05:13:30.132Z,0
2022-07-31T05:28:32.366Z,0
2022-07-31T05:43:34.564Z,0
2022-07-31T05:58:36.784Z,0
2022-07-31T06:13:39.033Z,0
2022-07-31T06:28:49.111Z,0
2022-07-31T06:43:51.754Z,0
2022-07-31T06:58:54.023Z,0
2022-07-31T07:13:56.366Z,0
2022-07-31T07:28:58.617Z,0
2022-07-31T07:44:00.845Z,0
2022-07-31T07:59:03.063Z,0
2022-07-31T08:14:05.309Z,0
2022-07-31T08:29:07.768Z,0
2022-07-31T08:44:10.080Z,0
2022-07-31T08:59:12.464Z,0
2022-07-31T09:14:14.681Z,0
2022-07-31T09:29:17.114Z,0
2022-07-31T09:44:19.688Z,0
2022-07-31T09:59:28.305Z,0
2022-07-31T10:14:30.489Z,0
2022-07-31T10:29:33.193Z,0
2022-07-31T10:44:38.792Z,0
2022-07-31T10:59:44.578Z,0
2022-07-31T11:14:47.447Z,0
2022-07-31T11:30:01.945Z,0
2022-07-31T11:45:08.607Z,0
2022-07-31T12:00:26.646Z,3.87727
2022-07-31T12:15:31.950Z,26.17155
2022-07-31T12:30:34.202Z,78.51466
2022-07-31T12:45:36.418Z,163.81453
2022-07-31T13:00:40.176Z,263.65414
2022-07-31T13:15:42.554Z,559.29578
2022-07-31T13:30:44.764Z,916.00427
2022-07-31T13:45:46.997Z,1181.59705
2022-07-31T14:00:49.280Z,1433.61938
2022-07-31T14:15:51.517Z,1808.745
2022-07-31T14:30:53.700Z,1834.9165
2022-07-31T14:45:55.874Z,2817.80371
2022-07-31T15:00:58.153Z,3278.22925
2022-07-31T15:16:00.413Z,2557.05762
2022-07-31T15:31:02.717Z,2416.50659
2022-07-31T15:46:04.959Z,4835.9209
2022-07-31T16:01:07.217Z,6292.8042
2022-07-31T16:16:09.599Z,6446.92529
2022-07-31T16:31:11.795Z,5993.28516
2022-07-31T16:46:32.754Z,6034.96582
2022-07-31T17:01:54.146Z,6033.99658
2022-07-31T17:17:03.401Z,6046.59766
2022-07-31T17:32:06.004Z,5897.32275
2022-07-31T17:47:08.720Z,5771.31152
2022-07-31T18:02:11.826Z,5624.94482
2022-07-31T18:17:14.111Z,5889.56836
2022-07-31T18:32:16.284Z,5745.14014
2022-07-31T18:47:18.469Z,5748.04834
2022-07-31T19:02:20.885Z,5646.27002
2022-07-31T19:17:24.319Z,5489.24072
2022-07-31T19:32:45.838Z,5374.86133
2022-07-31T19:47:48.094Z,5455.31445
2022-07-31T20:02:50.561Z,5541.5835
2022-07-31T20:17:53.076Z,5547.39941
2022-07-31T20:32:55.302Z,5682.13477
2022-07-31T20:47:59.016Z,5745.14014
2022-07-31T21:03:01.191Z,5376.7998
2022-07-31T21:18:03.655Z,5789.729
2022-07-31T21:33:05.933Z,6663.08301
2022-07-31T21:48:08.154Z,8264.39453
2022-07-31T22:03:10.448Z,9652.45605
2022-07-31T22:18:12.651Z,11395.28711
2022-07-31T22:33:15.025Z,12198.85059
2022-07-31T22:48:17.260Z,12860.89453
2022-07-31T23:03:19.477Z,13688.69043
2022-07-31T23:18:21.696Z,15061.24316
2022-07-31T23:33:23.895Z,16060.6084
2022-07-31T23:48:29.239Z,16706.17383
